sensor_id;sensor_type;location;lat;lon;timestamp;temperature;humidity
38237;DHT22;50101;49.438;11.098;2022-07-18T00:04:31;23.20;52.90
38237;DHT22;50101;49.438;11.098;2022-07-18T00:06:58;23.20;52.90
38237;DHT22;50101;49.438;11.098;2022-07-18T00:16:54;23.20;52.90
38237;DHT22;50101;49.438;11.098;2022-07-18T00:19:20;23.20;53.00
38237;DHT22;50101;49.438;11.098;2022-07-18T00:24:15;23.20;53.00
38237;DHT22;50101;49.438;11.098;2022-07-18T00:26:42;23.20;52.90
38237;DHT22;50101;49.438;11.098;2022-07-18T00:29:08;23.20;53.00
38237;DHT22;50101;49.438;11.098;2022-07-18T00:31:38;23.20;52.90
38237;DHT22;50101;49.438;11.098;2022-07-18T00:36:32;23.20;52.90
38237;DHT22;50101;49.438;11.098;2022-07-18T00:38:59;23.20;52.80
38237;DHT22;50101;49.438;11.098;2022-07-18T00:41:26;23.20;52.90
38237;DHT22;50101;49.438;11.098;2022-07-18T00:43:53;23.20;52.90
38237;DHT22;50101;49.438;11.098;2022-07-18T00:46:25;23.20;52.80
38237;DHT22;50101;49.438;11.098;2022-07-18T00:51:20;23.20;52.80
38237;DHT22;50101;49.438;11.098;2022-07-18T00:53:48;23.20;52.90
38237;DHT22;50101;49.438;11.098;2022-07-18T00:56:19;23.20;52.80
38237;DHT22;50101;49.438;11.098;2022-07-18T01:01:13;23.20;52.90
38237;DHT22;50101;49.438;11.098;2022-07-18T01:03:59;23.20;52.80
38237;DHT22;50101;49.438;11.098;2022-07-18T01:06:26;23.20;52.80
38237;DHT22;50101;49.438;11.098;2022-07-18T01:08:53;23.20;52.90
38237;DHT22;50101;49.438;11.098;2022-07-18T01:13:48;23.20;52.80
38237;DHT22;50101;49.438;11.098;2022-07-18T01:16:16;23.20;52.70
38237;DHT22;50101;49.438;11.098;2022-07-18T01:18:45;23.20;52.70
38237;DHT22;50101;49.438;11.098;2022-07-18T01:21:13;23.20;52.70
38237;DHT22;50101;49.438;11.098;2022-07-18T01:23:40;23.10;52.80
38237;DHT22;50101;49.438;11.098;2022-07-18T01:26:08;23.10;52.60
38237;DHT22;50101;49.438;11.098;2022-07-18T01:28:35;23.10;52.70
38237;DHT22;50101;49.438;11.098;2022-07-18T01:31:02;23.20;52.80
38237;DHT22;50101;49.438;11.098;2022-07-18T01:33:31;23.10;52.70
38237;DHT22;50101;49.438;11.098;2022-07-18T01:36:00;23.10;52.70
38237;DHT22;50101;49.438;11.098;2022-07-18T01:38:30;23.20;52.80
38237;DHT22;50101;49.438;11.098;2022-07-18T01:43:26;23.20;52.80
38237;DHT22;50101;49.438;11.098;2022-07-18T01:45:54;23.10;52.60
38237;DHT22;50101;49.438;11.098;2022-07-18T01:48:21;23.20;52.70
38237;DHT22;50101;49.438;11.098;2022-07-18T01:50:52;23.20;52.80
38237;DHT22;50101;49.438;11.098;2022-07-18T01:53:20;23.20;52.60
38237;DHT22;50101;49.438;11.098;2022-07-18T01:58:15;23.20;52.70
38237;DHT22;50101;49.438;11.098;2022-07-18T02:03:09;23.20;52.60
38237;DHT22;50101;49.438;11.098;2022-07-18T02:05:35;23.20;52.60
38237;DHT22;50101;49.438;11.098;2022-07-18T02:08:02;23.10;52.60
38237;DHT22;50101;49.438;11.098;2022-07-18T02:12:56;23.10;52.60
38237;DHT22;50101;49.438;11.098;2022-07-18T02:17:50;23.10;52.60
38237;DHT22;50101;49.438;11.098;2022-07-18T02:22:44;23.10;52.60
38237;DHT22;50101;49.438;11.098;2022-07-18T02:25:11;23.10;52.50
38237;DHT22;50101;49.438;11.098;2022-07-18T02:27:38;23.10;52.50
38237;DHT22;50101;49.438;11.098;2022-07-18T02:30:07;23.20;52.60
38237;DHT22;50101;49.438;11.098;2022-07-18T02:32:34;23.10;52.50
38237;DHT22;50101;49.438;11.098;2022-07-18T02:35:05;23.10;52.40
38237;DHT22;50101;49.438;11.098;2022-07-18T02:40:00;23.10;52.40
38237;DHT22;50101;49.438;11.098;2022-07-18T02:44:54;23.10;52.50
38237;DHT22;50101;49.438;11.098;2022-07-18T02:47:21;23.10;52.50
38237;DHT22;50101;49.438;11.098;2022-07-18T02:52:15;23.10;52.50
38237;DHT22;50101;49.438;11.098;2022-07-18T02:54:41;23.10;52.50
38237;DHT22;50101;49.438;11.098;2022-07-18T02:57:08;23.10;52.40
38237;DHT22;50101;49.438;11.098;2022-07-18T02:59:38;23.10;52.40
38237;DHT22;50101;49.438;11.098;2022-07-18T03:02:05;23.10;52.40
38237;DHT22;50101;49.438;11.098;2022-07-18T03:04:32;23.10;52.40
38237;DHT22;50101;49.438;11.098;2022-07-18T03:06:58;23.10;52.40
38237;DHT22;50101;49.438;11.098;2022-07-18T03:09:25;23.10;52.30
38237;DHT22;50101;49.438;11.098;2022-07-18T03:11:55;23.10;52.30
38237;DHT22;50101;49.438;11.098;2022-07-18T03:14:22;23.10;52.30
38237;DHT22;50101;49.438;11.098;2022-07-18T03:16:49;23.10;52.30
38237;DHT22;50101;49.438;11.098;2022-07-18T03:21:43;23.10;52.40
38237;DHT22;50101;49.438;11.098;2022-07-18T03:26:37;23.10;52.30
38237;DHT22;50101;49.438;11.098;2022-07-18T03:29:04;23.10;52.30
38237;DHT22;50101;49.438;11.098;2022-07-18T03:31:31;23.10;52.30
38237;DHT22;50101;49.438;11.098;2022-07-18T03:33:58;23.10;52.30
38237;DHT22;50101;49.438;11.098;2022-07-18T03:36:25;23.10;52.30
38237;DHT22;50101;49.438;11.098;2022-07-18T03:41:19;23.10;52.40
38237;DHT22;50101;49.438;11.098;2022-07-18T03:46:13;23.10;52.30
38237;DHT22;50101;49.438;11.098;2022-07-18T03:51:07;23.10;52.30
38237;DHT22;50101;49.438;11.098;2022-07-18T03:56:01;23.10;52.30
38237;DHT22;50101;49.438;11.098;2022-07-18T04:00:54;23.10;52.40
38237;DHT22;50101;49.438;11.098;2022-07-18T04:03:21;23.10;52.30
38237;DHT22;50101;49.438;11.098;2022-07-18T04:05:49;23.10;52.40
38237;DHT22;50101;49.438;11.098;2022-07-18T04:08:16;23.10;52.40
38237;DHT22;50101;49.438;11.098;2022-07-18T04:10:43;23.10;52.30
38237;DHT22;50101;49.438;11.098;2022-07-18T04:13:10;23.10;52.30
38237;DHT22;50101;49.438;11.098;2022-07-18T04:15:38;23.10;52.40
38237;DHT22;50101;49.438;11.098;2022-07-18T04:18:06;23.10;52.30
38237;DHT22;50101;49.438;11.098;2022-07-18T04:20:34;23.10;52.30
38237;DHT22;50101;49.438;11.098;2022-07-18T04:23:03;23.10;52.30
38237;DHT22;50101;49.438;11.098;2022-07-18T04:25:36;23.00;52.30
38237;DHT22;50101;49.438;11.098;2022-07-18T04:28:03;23.00;52.30
38237;DHT22;50101;49.438;11.098;2022-07-18T04:30:31;23.10;52.30
38237;DHT22;50101;49.438;11.098;2022-07-18T04:33:02;23.10;52.30
38237;DHT22;50101;49.438;11.098;2022-07-18T04:35:30;23.10;52.40
38237;DHT22;50101;49.438;11.098;2022-07-18T04:37:57;23.10;52.40
38237;DHT22;50101;49.438;11.098;2022-07-18T04:40:24;23.10;52.40
38237;DHT22;50101;49.438;11.098;2022-07-18T04:45:18;23.10;52.20
38237;DHT22;50101;49.438;11.098;2022-07-18T04:47:49;23.20;52.80
38237;DHT22;50101;49.438;11.098;2022-07-18T04:55:13;23.20;52.30
38237;DHT22;50101;49.438;11.098;2022-07-18T04:57:40;23.20;52.10
38237;DHT22;50101;49.438;11.098;2022-07-18T05:00:13;23.20;52.10
38237;DHT22;50101;49.438;11.098;2022-07-18T05:02:41;23.20;52.70
38237;DHT22;50101;49.438;11.098;2022-07-18T05:05:10;23.30;52.60
38237;DHT22;50101;49.438;11.098;2022-07-18T05:07:39;23.30;52.40
38237;DHT22;50101;49.438;11.098;2022-07-18T05:10:08;23.20;52.30
38237;DHT22;50101;49.438;11.098;2022-07-18T05:12:35;23.30;52.30
38237;DHT22;50101;49.438;11.098;2022-07-18T05:15:05;23.20;52.40
38237;DHT22;50101;49.438;11.098;2022-07-18T05:20:00;23.30;52.50
38237;DHT22;50101;49.438;11.098;2022-07-18T05:24:53;23.30;52.70
38237;DHT22;50101;49.438;11.098;2022-07-18T05:29:47;23.30;53.10
38237;DHT22;50101;49.438;11.098;2022-07-18T05:37:13;23.30;53.10
38237;DHT22;50101;49.438;11.098;2022-07-18T05:39:40;23.30;53.10
38237;DHT22;50101;49.438;11.098;2022-07-18T05:42:07;23.30;52.60
38237;DHT22;50101;49.438;11.098;2022-07-18T05:47:01;23.00;49.70
38237;DHT22;50101;49.438;11.098;2022-07-18T05:51:54;22.40;47.30
38237;DHT22;50101;49.438;11.098;2022-07-18T05:56:49;21.90;47.00
38237;DHT22;50101;49.438;11.098;2022-07-18T05:59:17;21.80;46.80
38237;DHT22;50101;49.438;11.098;2022-07-18T06:01:44;21.70;46.60
38237;DHT22;50101;49.438;11.098;2022-07-18T06:04:11;21.80;46.70
38237;DHT22;50101;49.438;11.098;2022-07-18T06:09:05;21.80;46.80
38237;DHT22;50101;49.438;11.098;2022-07-18T06:11:32;21.80;47.10
38237;DHT22;50101;49.438;11.098;2022-07-18T06:16:29;22.10;47.70
38237;DHT22;50101;49.438;11.098;2022-07-18T06:18:57;22.20;48.00
38237;DHT22;50101;49.438;11.098;2022-07-18T06:21:24;22.30;48.10
38237;DHT22;50101;49.438;11.098;2022-07-18T06:26:18;22.50;48.20
38237;DHT22;50101;49.438;11.098;2022-07-18T06:28:44;22.50;48.30
38237;DHT22;50101;49.438;11.098;2022-07-18T06:33:43;22.60;48.50
38237;DHT22;50101;49.438;11.098;2022-07-18T06:36:10;22.60;48.60
38237;DHT22;50101;49.438;11.098;2022-07-18T06:38:38;22.70;48.70
38237;DHT22;50101;49.438;11.098;2022-07-18T06:41:06;22.70;48.90
38237;DHT22;50101;49.438;11.098;2022-07-18T06:43:33;22.70;49.10
38237;DHT22;50101;49.438;11.098;2022-07-18T06:46:00;22.70;49.10
38237;DHT22;50101;49.438;11.098;2022-07-18T06:51:00;22.70;49.30
38237;DHT22;50101;49.438;11.098;2022-07-18T06:53:28;22.80;49.50
38237;DHT22;50101;49.438;11.098;2022-07-18T06:55:55;22.70;49.50
38237;DHT22;50101;49.438;11.098;2022-07-18T06:58:21;22.80;49.70
38237;DHT22;50101;49.438;11.098;2022-07-18T07:00:49;22.70;49.70
38237;DHT22;50101;49.438;11.098;2022-07-18T07:03:16;22.70;49.80
38237;DHT22;50101;49.438;11.098;2022-07-18T07:05:44;22.80;49.90
38237;DHT22;50101;49.438;11.098;2022-07-18T07:08:11;22.80;49.90
38237;DHT22;50101;49.438;11.098;2022-07-18T07:13:07;22.80;49.90
38237;DHT22;50101;49.438;11.098;2022-07-18T07:15:34;22.80;49.90
38237;DHT22;50101;49.438;11.098;2022-07-18T07:18:00;22.80;49.90
38237;DHT22;50101;49.438;11.098;2022-07-18T07:20:27;22.90;50.00
38237;DHT22;50101;49.438;11.098;2022-07-18T07:22:56;22.90;50.00
38237;DHT22;50101;49.438;11.098;2022-07-18T07:25:24;22.90;50.00
38237;DHT22;50101;49.438;11.098;2022-07-18T07:27:53;23.00;50.10
38237;DHT22;50101;49.438;11.098;2022-07-18T07:35:16;23.00;50.10
38237;DHT22;50101;49.438;11.098;2022-07-18T07:37:45;23.00;50.10
38237;DHT22;50101;49.438;11.098;2022-07-18T07:40:13;23.00;50.10
38237;DHT22;50101;49.438;11.098;2022-07-18T07:42:40;23.00;50.20
38237;DHT22;50101;49.438;11.098;2022-07-18T07:45:08;23.00;50.40
38237;DHT22;50101;49.438;11.098;2022-07-18T07:47:36;23.00;50.30
38237;DHT22;50101;49.438;11.098;2022-07-18T07:50:04;23.00;50.70
38237;DHT22;50101;49.438;11.098;2022-07-18T07:54:59;23.00;50.60
38237;DHT22;50101;49.438;11.098;2022-07-18T08:02:27;23.10;50.80
38237;DHT22;50101;49.438;11.098;2022-07-18T08:07:21;23.10;50.90
38237;DHT22;50101;49.438;11.098;2022-07-18T08:09:48;23.10;50.90
38237;DHT22;50101;49.438;11.098;2022-07-18T08:12:14;23.10;51.00
38237;DHT22;50101;49.438;11.098;2022-07-18T08:14:41;23.00;50.90
38237;DHT22;50101;49.438;11.098;2022-07-18T08:17:08;23.00;51.00
38237;DHT22;50101;49.438;11.098;2022-07-18T08:19:35;23.10;51.20
38237;DHT22;50101;49.438;11.098;2022-07-18T08:22:02;23.10;51.20
38237;DHT22;50101;49.438;11.098;2022-07-18T08:24:30;23.10;51.20
38237;DHT22;50101;49.438;11.098;2022-07-18T08:29:24;23.10;51.40
38237;DHT22;50101;49.438;11.098;2022-07-18T08:32:11;23.10;51.50
38237;DHT22;50101;49.438;11.098;2022-07-18T08:34:40;23.00;51.40
38237;DHT22;50101;49.438;11.098;2022-07-18T08:37:06;23.00;51.50
38237;DHT22;50101;49.438;11.098;2022-07-18T08:39:33;23.00;51.60
38237;DHT22;50101;49.438;11.098;2022-07-18T08:42:01;23.00;51.60
38237;DHT22;50101;49.438;11.098;2022-07-18T08:44:28;23.00;51.60
38237;DHT22;50101;49.438;11.098;2022-07-18T08:46:57;23.10;51.70
38237;DHT22;50101;49.438;11.098;2022-07-18T08:51:51;23.10;51.70
38237;DHT22;50101;49.438;11.098;2022-07-18T08:59:15;23.20;51.80
38237;DHT22;50101;49.438;11.098;2022-07-18T09:01:42;23.20;51.90
38237;DHT22;50101;49.438;11.098;2022-07-18T09:04:09;23.20;51.80
38237;DHT22;50101;49.438;11.098;2022-07-18T09:06:51;23.20;51.70
38237;DHT22;50101;49.438;11.098;2022-07-18T09:09:19;23.20;51.70
38237;DHT22;50101;49.438;11.098;2022-07-18T09:11:55;23.20;51.80
38237;DHT22;50101;49.438;11.098;2022-07-18T09:14:36;23.20;51.90
38237;DHT22;50101;49.438;11.098;2022-07-18T09:17:15;23.30;51.90
38237;DHT22;50101;49.438;11.098;2022-07-18T09:22:31;23.20;51.80
38237;DHT22;50101;49.438;11.098;2022-07-18T09:27:37;23.30;52.00
38237;DHT22;50101;49.438;11.098;2022-07-18T09:30:27;23.30;52.10
38237;DHT22;50101;49.438;11.098;2022-07-18T09:33:07;23.20;52.10
38237;DHT22;50101;49.438;11.098;2022-07-18T09:36:09;23.30;52.10
38237;DHT22;50101;49.438;11.098;2022-07-18T09:38:29;23.30;52.20
38237;DHT22;50101;49.438;11.098;2022-07-18T09:40:56;23.30;52.10
38237;DHT22;50101;49.438;11.098;2022-07-18T09:45:56;23.30;52.10
38237;DHT22;50101;49.438;11.098;2022-07-18T09:48:26;23.30;52.10
38237;DHT22;50101;49.438;11.098;2022-07-18T09:50:56;23.30;52.10
38237;DHT22;50101;49.438;11.098;2022-07-18T09:56:01;23.30;52.20
38237;DHT22;50101;49.438;11.098;2022-07-18T09:58:31;23.40;52.20
38237;DHT22;50101;49.438;11.098;2022-07-18T10:01:00;23.40;52.20
38237;DHT22;50101;49.438;11.098;2022-07-18T10:03:28;23.40;52.30
38237;DHT22;50101;49.438;11.098;2022-07-18T10:05:56;23.40;52.40
38237;DHT22;50101;49.438;11.098;2022-07-18T10:08:31;23.40;52.30
38237;DHT22;50101;49.438;11.098;2022-07-18T10:10:59;23.40;52.20
38237;DHT22;50101;49.438;11.098;2022-07-18T10:13:28;23.40;52.60
38237;DHT22;50101;49.438;11.098;2022-07-18T10:15:55;23.50;52.60
38237;DHT22;50101;49.438;11.098;2022-07-18T10:18:25;23.60;52.90
38237;DHT22;50101;49.438;11.098;2022-07-18T10:20:58;23.60;53.30
38237;DHT22;50101;49.438;11.098;2022-07-18T10:23:34;23.70;53.60
38237;DHT22;50101;49.438;11.098;2022-07-18T10:31:34;23.60;53.00
38237;DHT22;50101;49.438;11.098;2022-07-18T10:36:40;23.50;52.70
38237;DHT22;50101;49.438;11.098;2022-07-18T10:57:41;23.50;53.30
38237;DHT22;50101;49.438;11.098;2022-07-18T11:03:10;23.60;53.00
38237;DHT22;50101;49.438;11.098;2022-07-18T11:05:49;23.60;53.10
38237;DHT22;50101;49.438;11.098;2022-07-18T11:08:18;23.60;53.10
38237;DHT22;50101;49.438;11.098;2022-07-18T11:18:30;23.50;53.50
38237;DHT22;50101;49.438;11.098;2022-07-18T11:20:57;23.50;53.50
38237;DHT22;50101;49.438;11.098;2022-07-18T11:23:26;23.60;53.70
38237;DHT22;50101;49.438;11.098;2022-07-18T11:25:59;23.60;53.50
38237;DHT22;50101;49.438;11.098;2022-07-18T11:28:28;23.60;53.80
38237;DHT22;50101;49.438;11.098;2022-07-18T11:33:34;23.60;53.70
38237;DHT22;50101;49.438;11.098;2022-07-18T11:36:12;23.60;53.80
38237;DHT22;50101;49.438;11.098;2022-07-18T11:38:52;23.70;53.90
38237;DHT22;50101;49.438;11.098;2022-07-18T11:41:20;23.70;53.80
38237;DHT22;50101;49.438;11.098;2022-07-18T11:46:18;23.70;53.80
38237;DHT22;50101;49.438;11.098;2022-07-18T11:48:48;23.70;53.80
38237;DHT22;50101;49.438;11.098;2022-07-18T11:51:17;23.70;53.90
38237;DHT22;50101;49.438;11.098;2022-07-18T11:53:47;23.80;54.00
38237;DHT22;50101;49.438;11.098;2022-07-18T11:56:16;23.80;54.20
38237;DHT22;50101;49.438;11.098;2022-07-18T11:58:44;23.90;54.60
38237;DHT22;50101;49.438;11.098;2022-07-18T12:01:11;24.00;54.60
38237;DHT22;50101;49.438;11.098;2022-07-18T12:03:44;24.10;55.20
38237;DHT22;50101;49.438;11.098;2022-07-18T12:06:17;24.00;54.80
38237;DHT22;50101;49.438;11.098;2022-07-18T12:08:46;24.00;54.90
38237;DHT22;50101;49.438;11.098;2022-07-18T12:13:59;23.80;54.90
38237;DHT22;50101;49.438;11.098;2022-07-18T12:16:36;23.90;54.90
38237;DHT22;50101;49.438;11.098;2022-07-18T12:19:12;23.90;54.70
38237;DHT22;50101;49.438;11.098;2022-07-18T12:22:18;23.90;54.60
38237;DHT22;50101;49.438;11.098;2022-07-18T12:24:53;23.90;54.50
38237;DHT22;50101;49.438;11.098;2022-07-18T12:30:19;23.90;54.50
38237;DHT22;50101;49.438;11.098;2022-07-18T12:32:54;23.90;54.30
38237;DHT22;50101;49.438;11.098;2022-07-18T12:38:11;23.80;54.20
38237;DHT22;50101;49.438;11.098;2022-07-18T12:40:58;23.90;54.30
38237;DHT22;50101;49.438;11.098;2022-07-18T12:43:30;23.90;54.30
38237;DHT22;50101;49.438;11.098;2022-07-18T12:45:59;23.90;54.10
38237;DHT22;50101;49.438;11.098;2022-07-18T12:48:27;23.90;54.20
38237;DHT22;50101;49.438;11.098;2022-07-18T12:51:02;23.90;54.50
38237;DHT22;50101;49.438;11.098;2022-07-18T12:53:31;23.90;54.60
38237;DHT22;50101;49.438;11.098;2022-07-18T12:55:58;23.90;54.80
38237;DHT22;50101;49.438;11.098;2022-07-18T13:00:52;23.90;54.80
38237;DHT22;50101;49.438;11.098;2022-07-18T13:03:25;23.90;54.80
38237;DHT22;50101;49.438;11.098;2022-07-18T13:05:52;23.90;54.80
38237;DHT22;50101;49.438;11.098;2022-07-18T13:10:46;23.90;54.90
38237;DHT22;50101;49.438;11.098;2022-07-18T13:15:40;24.00;55.00
38237;DHT22;50101;49.438;11.098;2022-07-18T13:18:07;23.90;54.80
38237;DHT22;50101;49.438;11.098;2022-07-18T13:20:34;23.90;54.60
38237;DHT22;50101;49.438;11.098;2022-07-18T13:25:30;23.90;54.70
38237;DHT22;50101;49.438;11.098;2022-07-18T13:27:59;23.90;54.70
38237;DHT22;50101;49.438;11.098;2022-07-18T13:32:54;24.00;54.90
38237;DHT22;50101;49.438;11.098;2022-07-18T13:35:21;24.00;54.30
38237;DHT22;50101;49.438;11.098;2022-07-18T13:37:48;24.00;54.60
38237;DHT22;50101;49.438;11.098;2022-07-18T13:40:15;23.90;54.40
38237;DHT22;50101;49.438;11.098;2022-07-18T13:42:42;23.90;54.40
38237;DHT22;50101;49.438;11.098;2022-07-18T13:45:10;23.90;54.30
38237;DHT22;50101;49.438;11.098;2022-07-18T13:47:36;23.90;54.60
38237;DHT22;50101;49.438;11.098;2022-07-18T13:50:04;24.00;54.40
38237;DHT22;50101;49.438;11.098;2022-07-18T13:52:32;23.90;54.30
38237;DHT22;50101;49.438;11.098;2022-07-18T14:02:20;23.90;54.50
38237;DHT22;50101;49.438;11.098;2022-07-18T14:04:47;23.90;54.50
38237;DHT22;50101;49.438;11.098;2022-07-18T14:07:34;23.90;54.50
38237;DHT22;50101;49.438;11.098;2022-07-18T14:10:01;23.90;54.50
38237;DHT22;50101;49.438;11.098;2022-07-18T14:12:27;23.90;54.50
38237;DHT22;50101;49.438;11.098;2022-07-18T14:14:54;24.00;54.60
38237;DHT22;50101;49.438;11.098;2022-07-18T14:17:21;24.00;54.40
38237;DHT22;50101;49.438;11.098;2022-07-18T14:19:47;24.00;54.30
38237;DHT22;50101;49.438;11.098;2022-07-18T14:22:14;24.00;54.40
38237;DHT22;50101;49.438;11.098;2022-07-18T14:24:41;24.00;54.20
38237;DHT22;50101;49.438;11.098;2022-07-18T14:27:07;24.00;54.40
38237;DHT22;50101;49.438;11.098;2022-07-18T14:34:30;24.00;54.40
38237;DHT22;50101;49.438;11.098;2022-07-18T14:39:24;23.90;54.40
38237;DHT22;50101;49.438;11.098;2022-07-18T14:44:18;23.90;54.40
38237;DHT22;50101;49.438;11.098;2022-07-18T14:46:45;24.00;54.40
38237;DHT22;50101;49.438;11.098;2022-07-18T14:49:12;23.90;54.30
38237;DHT22;50101;49.438;11.098;2022-07-18T14:54:05;24.00;54.20
38237;DHT22;50101;49.438;11.098;2022-07-18T14:56:33;24.00;54.10
38237;DHT22;50101;49.438;11.098;2022-07-18T14:58:59;24.00;54.20
38237;DHT22;50101;49.438;11.098;2022-07-18T15:01:26;24.00;54.60
38237;DHT22;50101;49.438;11.098;2022-07-18T15:03:53;24.00;54.40
38237;DHT22;50101;49.438;11.098;2022-07-18T15:06:27;24.00;54.50
38237;DHT22;50101;49.438;11.098;2022-07-18T15:08:54;23.90;54.40
38237;DHT22;50101;49.438;11.098;2022-07-18T15:13:51;24.10;54.70
38237;DHT22;50101;49.438;11.098;2022-07-18T15:16:18;24.10;54.80
38237;DHT22;50101;49.438;11.098;2022-07-18T15:18:45;24.10;54.80
38237;DHT22;50101;49.438;11.098;2022-07-18T15:21:11;24.10;54.80
38237;DHT22;50101;49.438;11.098;2022-07-18T15:23:38;24.10;54.70
38237;DHT22;50101;49.438;11.098;2022-07-18T15:28:32;24.10;54.90
38237;DHT22;50101;49.438;11.098;2022-07-18T15:33:26;24.10;55.00
38237;DHT22;50101;49.438;11.098;2022-07-18T15:38:20;24.10;55.30
38237;DHT22;50101;49.438;11.098;2022-07-18T15:43:14;24.00;55.30
38237;DHT22;50101;49.438;11.098;2022-07-18T15:45:40;24.00;55.30
38237;DHT22;50101;49.438;11.098;2022-07-18T15:48:07;24.00;55.30
38237;DHT22;50101;49.438;11.098;2022-07-18T15:53:02;24.00;55.30
38237;DHT22;50101;49.438;11.098;2022-07-18T15:55:29;24.00;55.40
38237;DHT22;50101;49.438;11.098;2022-07-18T15:57:57;24.00;55.40
38237;DHT22;50101;49.438;11.098;2022-07-18T16:02:51;24.00;55.50
38237;DHT22;50101;49.438;11.098;2022-07-18T16:05:19;24.00;55.40
38237;DHT22;50101;49.438;11.098;2022-07-18T16:07:46;24.00;55.70
38237;DHT22;50101;49.438;11.098;2022-07-18T16:10:12;24.00;55.40
38237;DHT22;50101;49.438;11.098;2022-07-18T16:12:39;24.00;55.50
38237;DHT22;50101;49.438;11.098;2022-07-18T16:15:07;24.00;55.50
38237;DHT22;50101;49.438;11.098;2022-07-18T16:17:34;24.00;55.40
38237;DHT22;50101;49.438;11.098;2022-07-18T16:22:28;24.00;55.30
38237;DHT22;50101;49.438;11.098;2022-07-18T16:27:22;24.00;55.30
38237;DHT22;50101;49.438;11.098;2022-07-18T16:29:52;24.00;55.30
38237;DHT22;50101;49.438;11.098;2022-07-18T16:32:22;24.00;55.30
38237;DHT22;50101;49.438;11.098;2022-07-18T16:37:16;23.90;55.10
38237;DHT22;50101;49.438;11.098;2022-07-18T16:39:44;24.00;55.20
38237;DHT22;50101;49.438;11.098;2022-07-18T16:42:11;23.90;55.10
38237;DHT22;50101;49.438;11.098;2022-07-18T16:44:38;24.00;55.10
38237;DHT22;50101;49.438;11.098;2022-07-18T16:49:34;23.90;55.00
38237;DHT22;50101;49.438;11.098;2022-07-18T16:52:02;23.90;55.10
38237;DHT22;50101;49.438;11.098;2022-07-18T16:54:30;23.90;55.10
38237;DHT22;50101;49.438;11.098;2022-07-18T16:56:57;23.90;55.10
38237;DHT22;50101;49.438;11.098;2022-07-18T16:59:24;23.90;55.10
38237;DHT22;50101;49.438;11.098;2022-07-18T17:01:51;23.90;55.00
38237;DHT22;50101;49.438;11.098;2022-07-18T17:04:18;23.90;55.00
38237;DHT22;50101;49.438;11.098;2022-07-18T17:06:45;23.90;55.00
38237;DHT22;50101;49.438;11.098;2022-07-18T17:09:11;23.90;55.00
38237;DHT22;50101;49.438;11.098;2022-07-18T17:11:39;23.90;55.00
38237;DHT22;50101;49.438;11.098;2022-07-18T17:16:34;23.90;55.00
38237;DHT22;50101;49.438;11.098;2022-07-18T17:19:01;23.90;55.00
38237;DHT22;50101;49.438;11.098;2022-07-18T17:21:28;23.90;54.90
38237;DHT22;50101;49.438;11.098;2022-07-18T17:23:57;23.90;54.90
38237;DHT22;50101;49.438;11.098;2022-07-18T17:26:24;23.90;54.90
38237;DHT22;50101;49.438;11.098;2022-07-18T17:28:51;24.00;55.00
38237;DHT22;50101;49.438;11.098;2022-07-18T17:31:18;23.90;54.80
38237;DHT22;50101;49.438;11.098;2022-07-18T17:33:46;24.00;54.80
38237;DHT22;50101;49.438;11.098;2022-07-18T17:36:13;24.00;54.80
38237;DHT22;50101;49.438;11.098;2022-07-18T17:38:40;24.00;54.80
38237;DHT22;50101;49.438;11.098;2022-07-18T17:41:07;23.90;54.70
38237;DHT22;50101;49.438;11.098;2022-07-18T17:43:39;23.90;54.70
38237;DHT22;50101;49.438;11.098;2022-07-18T17:46:09;24.00;54.70
38237;DHT22;50101;49.438;11.098;2022-07-18T17:48:37;24.00;54.60
38237;DHT22;50101;49.438;11.098;2022-07-18T17:51:05;23.90;54.60
38237;DHT22;50101;49.438;11.098;2022-07-18T17:53:32;23.90;54.60
38237;DHT22;50101;49.438;11.098;2022-07-18T17:56:00;23.90;54.50
38237;DHT22;50101;49.438;11.098;2022-07-18T17:58:27;23.90;54.40
38237;DHT22;50101;49.438;11.098;2022-07-18T18:00:54;23.90;54.10
38237;DHT22;50101;49.438;11.098;2022-07-18T18:03:20;23.90;54.30
38237;DHT22;50101;49.438;11.098;2022-07-18T18:05:47;23.90;54.20
38237;DHT22;50101;49.438;11.098;2022-07-18T18:08:14;23.90;54.00
38237;DHT22;50101;49.438;11.098;2022-07-18T18:10:46;23.90;53.80
38237;DHT22;50101;49.438;11.098;2022-07-18T18:13:13;23.90;54.00
38237;DHT22;50101;49.438;11.098;2022-07-18T18:15:40;23.90;53.90
38237;DHT22;50101;49.438;11.098;2022-07-18T18:18:07;23.90;53.60
38237;DHT22;50101;49.438;11.098;2022-07-18T18:20:34;23.90;53.60
38237;DHT22;50101;49.438;11.098;2022-07-18T18:23:00;23.90;53.60
38237;DHT22;50101;49.438;11.098;2022-07-18T18:25:27;23.90;53.60
38237;DHT22;50101;49.438;11.098;2022-07-18T18:30:21;23.90;53.30
38237;DHT22;50101;49.438;11.098;2022-07-18T18:35:16;23.90;53.20
38237;DHT22;50101;49.438;11.098;2022-07-18T18:37:42;23.90;53.00
38237;DHT22;50101;49.438;11.098;2022-07-18T18:40:09;23.90;53.30
38237;DHT22;50101;49.438;11.098;2022-07-18T18:42:36;23.90;53.20
38237;DHT22;50101;49.438;11.098;2022-07-18T18:45:07;23.90;53.10
38237;DHT22;50101;49.438;11.098;2022-07-18T18:47:35;23.90;52.90
38237;DHT22;50101;49.438;11.098;2022-07-18T18:50:04;23.90;53.00
38237;DHT22;50101;49.438;11.098;2022-07-18T18:52:32;23.90;52.70
38237;DHT22;50101;49.438;11.098;2022-07-18T18:55:01;23.90;52.70
38237;DHT22;50101;49.438;11.098;2022-07-18T18:57:28;23.90;52.70
38237;DHT22;50101;49.438;11.098;2022-07-18T18:59:55;23.90;52.90
38237;DHT22;50101;49.438;11.098;2022-07-18T19:07:16;23.90;52.60
38237;DHT22;50101;49.438;11.098;2022-07-18T19:12:11;23.90;52.70
38237;DHT22;50101;49.438;11.098;2022-07-18T19:14:38;23.90;52.70
38237;DHT22;50101;49.438;11.098;2022-07-18T19:17:04;23.90;52.90
38237;DHT22;50101;49.438;11.098;2022-07-18T19:19:31;23.90;52.70
38237;DHT22;50101;49.438;11.098;2022-07-18T19:24:25;23.80;52.80
38237;DHT22;50101;49.438;11.098;2022-07-18T19:29:19;23.90;52.80
38237;DHT22;50101;49.438;11.098;2022-07-18T19:31:46;23.90;52.90
38237;DHT22;50101;49.438;11.098;2022-07-18T19:34:13;23.80;52.80
38237;DHT22;50101;49.438;11.098;2022-07-18T19:36:40;23.80;53.00
38237;DHT22;50101;49.438;11.098;2022-07-18T19:39:07;23.90;53.10
38237;DHT22;50101;49.438;11.098;2022-07-18T19:41:36;23.90;53.00
38237;DHT22;50101;49.438;11.098;2022-07-18T19:44:03;23.90;53.00
38237;DHT22;50101;49.438;11.098;2022-07-18T19:46:32;23.80;53.00
38237;DHT22;50101;49.438;11.098;2022-07-18T19:48:59;23.80;53.10
38237;DHT22;50101;49.438;11.098;2022-07-18T19:56:20;23.90;53.20